Etusivu
METAR-TAF:

METAR-TAF

Lentoasemat :

Petersburg, Alaska, Yhdysvallat

Leveyspiiri: 56-49N, Pituuspiiri: 132-58W, korkeus merenpinnasta: 0 m

Tämänhetkinen sää

Tämä raportti tehtiin 34 minuuttia sitten, kello 10.56 UTC
Tuuli 3 kn lounaasta
Lämpötila -8°C
Kosteus 92%
Ilmanpaine 1026 hPa
Näkyvyys: 16.1 km
selkeää

METAR: PAPG 201056Z AUTO 23003KT 10SM CLR M08/M09 A3031 RMK AO2 SLP266 T10831089 FZRANO

Aika: 02:30 (11:30 UTC)

Sääennuste

Tämä raportti tehtiin 5 tuntia ja 55 minuuttia sitten, kello 05.35 UTC
Ennuste voimassa 20. päivästä klo 06 UTC - 21. päivään klo 06 UTC
Tuuli 3 kn eri suunnista
Näkyvyys: 10 km
Hajanaisia pilviä 15000 ft:n korkeudessa

TAF: PAPG 200535Z 2006/2106 VRB03KT P6SM SCT150 AMD LTD TO CLD VIS AND WIND 2006/2015

Säähavainnot ja -ennusteet yli 4000 lentoasemalta (METAR- ja TAF-raportit).

Käytössä olevat sääasemat on merkitty karttaan keltaisilla ja punaisilla pisteillä.

Aseta hiiri pisteen päälle nähdäksesi sääaseman nimen.

Klikkaa sitten nähdäksesi säähavainnot ja -ennusteet.

Kartan vaihtaminen: klikkaa mustalla rastilla varustettuja vihreitä pisteitä, niin voit zoomata sisään; viivalla varustettua vihreää pistettä, niin voit zoomata ulos tai vihreitä nuolia, niin pääset viereisille kartoille.


METAR-TAF: